sensor_id;sensor_type;location;lat;lon;timestamp;P1;durP1;ratioP1;P2;durP2;ratioP2
35743;SDS011;21867;52.012;4.324;2022-11-15T00:01:32;40.23;;;24.70;;
35743;SDS011;21867;52.012;4.324;2022-11-15T00:04:18;31.53;;;21.00;;
35743;SDS011;21867;52.012;4.324;2022-11-15T00:07:05;41.93;;;24.57;;
35743;SDS011;21867;52.012;4.324;2022-11-15T00:09:51;37.73;;;22.97;;
35743;SDS011;21867;52.012;4.324;2022-11-15T00:12:37;31.60;;;21.53;;
35743;SDS011;21867;52.012;4.324;2022-11-15T00:15:23;38.57;;;24.80;;
35743;SDS011;21867;52.012;4.324;2022-11-15T00:18:11;36.70;;;22.73;;
35743;SDS011;21867;52.012;4.324;2022-11-15T00:21:02;40.17;;;24.03;;
35743;SDS011;21867;52.012;4.324;2022-11-15T00:23:49;32.97;;;20.57;;
35743;SDS011;21867;52.012;4.324;2022-11-15T00:26:35;37.83;;;23.57;;
35743;SDS011;21867;52.012;4.324;2022-11-15T00:29:21;38.77;;;24.97;;
35743;SDS011;21867;52.012;4.324;2022-11-15T00:32:07;32.93;;;20.80;;
35743;SDS011;21867;52.012;4.324;2022-11-15T00:34:53;33.40;;;21.30;;
35743;SDS011;21867;52.012;4.324;2022-11-15T00:37:38;33.20;;;21.47;;
35743;SDS011;21867;52.012;4.324;2022-11-15T00:40:25;36.23;;;23.10;;
35743;SDS011;21867;52.012;4.324;2022-11-15T00:46:01;34.30;;;22.10;;
35743;SDS011;21867;52.012;4.324;2022-11-15T00:48:47;40.57;;;25.83;;
35743;SDS011;21867;52.012;4.324;2022-11-15T00:51:33;44.70;;;25.43;;
35743;SDS011;21867;52.012;4.324;2022-11-15T00:54:19;39.83;;;26.20;;
35743;SDS011;21867;52.012;4.324;2022-11-15T00:57:22;39.90;;;24.40;;
35743;SDS011;21867;52.012;4.324;2022-11-15T01:03:23;37.63;;;22.60;;
35743;SDS011;21867;52.012;4.324;2022-11-15T01:06:11;31.37;;;22.03;;
35743;SDS011;21867;52.012;4.324;2022-11-15T01:08:57;38.27;;;23.50;;
35743;SDS011;21867;52.012;4.324;2022-11-15T01:11:48;41.23;;;25.47;;
35743;SDS011;21867;52.012;4.324;2022-11-15T01:14:35;41.57;;;24.97;;
35743;SDS011;21867;52.012;4.324;2022-11-15T01:17:21;45.47;;;25.90;;
35743;SDS011;21867;52.012;4.324;2022-11-15T01:20:08;49.67;;;26.70;;
35743;SDS011;21867;52.012;4.324;2022-11-15T01:22:54;41.17;;;24.80;;
35743;SDS011;21867;52.012;4.324;2022-11-15T01:25:40;40.27;;;24.33;;
35743;SDS011;21867;52.012;4.324;2022-11-15T01:28:29;46.27;;;25.90;;
35743;SDS011;21867;52.012;4.324;2022-11-15T01:31:17;46.97;;;27.23;;
35743;SDS011;21867;52.012;4.324;2022-11-15T01:34:03;45.93;;;27.47;;
35743;SDS011;21867;52.012;4.324;2022-11-15T01:36:59;49.77;;;27.37;;
35743;SDS011;21867;52.012;4.324;2022-11-15T01:39:57;50.47;;;28.97;;
35743;SDS011;21867;52.012;4.324;2022-11-15T01:42:55;46.13;;;26.03;;
35743;SDS011;21867;52.012;4.324;2022-11-15T01:45:41;48.80;;;25.57;;
35743;SDS011;21867;52.012;4.324;2022-11-15T01:48:30;51.20;;;29.43;;
35743;SDS011;21867;52.012;4.324;2022-11-15T01:51:19;56.53;;;30.07;;
35743;SDS011;21867;52.012;4.324;2022-11-15T01:54:06;47.33;;;24.83;;
35743;SDS011;21867;52.012;4.324;2022-11-15T01:59:39;48.43;;;27.87;;
35743;SDS011;21867;52.012;4.324;2022-11-15T02:02:26;57.80;;;32.27;;
35743;SDS011;21867;52.012;4.324;2022-11-15T02:05:13;52.23;;;25.83;;
35743;SDS011;21867;52.012;4.324;2022-11-15T02:07:59;48.30;;;24.83;;
35743;SDS011;21867;52.012;4.324;2022-11-15T02:10:45;65.17;;;31.10;;
35743;SDS011;21867;52.012;4.324;2022-11-15T02:16:51;31.90;;;19.13;;
35743;SDS011;21867;52.012;4.324;2022-11-15T02:19:52;49.63;;;26.17;;
35743;SDS011;21867;52.012;4.324;2022-11-15T02:22:46;50.33;;;27.33;;
35743;SDS011;21867;52.012;4.324;2022-11-15T02:25:37;40.50;;;24.73;;
35743;SDS011;21867;52.012;4.324;2022-11-15T02:28:42;50.63;;;27.93;;
35743;SDS011;21867;52.012;4.324;2022-11-15T02:31:32;39.33;;;22.37;;
35743;SDS011;21867;52.012;4.324;2022-11-15T02:34:21;45.67;;;24.93;;
35743;SDS011;21867;52.012;4.324;2022-11-15T02:37:13;40.90;;;23.30;;
35743;SDS011;21867;52.012;4.324;2022-11-15T02:40:01;48.87;;;26.13;;
35743;SDS011;21867;52.012;4.324;2022-11-15T02:42:51;36.30;;;25.43;;
35743;SDS011;21867;52.012;4.324;2022-11-15T02:45:39;37.53;;;23.07;;
35743;SDS011;21867;52.012;4.324;2022-11-15T02:48:28;38.77;;;25.87;;
35743;SDS011;21867;52.012;4.324;2022-11-15T02:51:16;35.23;;;23.93;;
35743;SDS011;21867;52.012;4.324;2022-11-15T02:54:18;36.10;;;25.13;;
35743;SDS011;21867;52.012;4.324;2022-11-15T02:57:18;28.60;;;21.23;;
35743;SDS011;21867;52.012;4.324;2022-11-15T03:00:06;27.57;;;21.83;;
35743;SDS011;21867;52.012;4.324;2022-11-15T03:02:57;33.10;;;22.50;;
35743;SDS011;21867;52.012;4.324;2022-11-15T03:05:49;28.27;;;20.87;;
35743;SDS011;21867;52.012;4.324;2022-11-15T03:08:40;32.87;;;22.37;;
35743;SDS011;21867;52.012;4.324;2022-11-15T03:14:25;27.80;;;20.07;;
35743;SDS011;21867;52.012;4.324;2022-11-15T03:17:15;25.43;;;19.03;;
35743;SDS011;21867;52.012;4.324;2022-11-15T03:20:03;24.83;;;18.43;;
35743;SDS011;21867;52.012;4.324;2022-11-15T03:23:08;22.33;;;16.77;;
35743;SDS011;21867;52.012;4.324;2022-11-15T03:26:07;24.73;;;16.80;;
35743;SDS011;21867;52.012;4.324;2022-11-15T03:28:55;20.67;;;15.40;;
35743;SDS011;21867;52.012;4.324;2022-11-15T03:31:43;23.67;;;15.57;;
35743;SDS011;21867;52.012;4.324;2022-11-15T03:34:35;19.80;;;14.27;;
35743;SDS011;21867;52.012;4.324;2022-11-15T03:37:24;27.60;;;14.73;;
35743;SDS011;21867;52.012;4.324;2022-11-15T03:40:11;21.53;;;13.97;;
35743;SDS011;21867;52.012;4.324;2022-11-15T03:43:04;21.27;;;13.90;;
35743;SDS011;21867;52.012;4.324;2022-11-15T03:45:53;18.60;;;12.90;;
35743;SDS011;21867;52.012;4.324;2022-11-15T03:48:41;15.50;;;11.50;;
35743;SDS011;21867;52.012;4.324;2022-11-15T03:51:37;17.67;;;11.77;;
35743;SDS011;21867;52.012;4.324;2022-11-15T03:58:10;13.50;;;10.57;;
35743;SDS011;21867;52.012;4.324;2022-11-15T04:00:56;18.80;;;13.37;;
35743;SDS011;21867;52.012;4.324;2022-11-15T04:03:42;14.77;;;9.03;;
35743;SDS011;21867;52.012;4.324;2022-11-15T04:06:27;15.13;;;9.57;;
35743;SDS011;21867;52.012;4.324;2022-11-15T04:09:13;20.30;;;11.27;;
35743;SDS011;21867;52.012;4.324;2022-11-15T04:11:59;15.03;;;10.13;;
35743;SDS011;21867;52.012;4.324;2022-11-15T04:14:46;17.50;;;10.80;;
35743;SDS011;21867;52.012;4.324;2022-11-15T04:17:32;16.13;;;10.43;;
35743;SDS011;21867;52.012;4.324;2022-11-15T04:20:27;15.90;;;10.77;;
35743;SDS011;21867;52.012;4.324;2022-11-15T04:27:07;12.47;;;9.40;;
35743;SDS011;21867;52.012;4.324;2022-11-15T04:29:56;11.07;;;8.37;;
35743;SDS011;21867;52.012;4.324;2022-11-15T04:32:42;12.73;;;8.53;;
35743;SDS011;21867;52.012;4.324;2022-11-15T04:35:28;14.73;;;9.40;;
35743;SDS011;21867;52.012;4.324;2022-11-15T04:38:13;16.70;;;8.93;;
35743;SDS011;21867;52.012;4.324;2022-11-15T04:41:05;12.67;;;8.27;;
35743;SDS011;21867;52.012;4.324;2022-11-15T04:43:51;13.63;;;9.77;;
35743;SDS011;21867;52.012;4.324;2022-11-15T04:46:38;13.23;;;9.07;;
35743;SDS011;21867;52.012;4.324;2022-11-15T04:49:24;18.67;;;9.63;;
35743;SDS011;21867;52.012;4.324;2022-11-15T04:55:30;17.07;;;7.80;;
35743;SDS011;21867;52.012;4.324;2022-11-15T04:58:16;15.40;;;8.87;;
35743;SDS011;21867;52.012;4.324;2022-11-15T05:01:05;12.33;;;8.30;;
35743;SDS011;21867;52.012;4.324;2022-11-15T05:03:53;13.43;;;7.97;;
35743;SDS011;21867;52.012;4.324;2022-11-15T05:06:39;12.10;;;7.27;;
35743;SDS011;21867;52.012;4.324;2022-11-15T05:12:29;9.93;;;6.60;;
35743;SDS011;21867;52.012;4.324;2022-11-15T05:15:15;13.30;;;7.07;;
35743;SDS011;21867;52.012;4.324;2022-11-15T05:18:01;10.23;;;6.17;;
35743;SDS011;21867;52.012;4.324;2022-11-15T05:24:15;10.93;;;6.13;;
35743;SDS011;21867;52.012;4.324;2022-11-15T05:27:01;12.60;;;6.80;;
35743;SDS011;21867;52.012;4.324;2022-11-15T05:29:46;16.70;;;6.77;;
35743;SDS011;21867;52.012;4.324;2022-11-15T05:32:32;8.90;;;6.10;;
35743;SDS011;21867;52.012;4.324;2022-11-15T05:35:18;10.07;;;5.27;;
35743;SDS011;21867;52.012;4.324;2022-11-15T05:38:05;11.87;;;5.50;;
35743;SDS011;21867;52.012;4.324;2022-11-15T05:40:57;9.87;;;6.33;;
35743;SDS011;21867;52.012;4.324;2022-11-15T05:43:44;16.87;;;5.53;;
35743;SDS011;21867;52.012;4.324;2022-11-15T05:46:32;9.67;;;5.60;;
35743;SDS011;21867;52.012;4.324;2022-11-15T05:49:25;8.07;;;5.43;;
35743;SDS011;21867;52.012;4.324;2022-11-15T05:52:24;8.13;;;5.27;;
35743;SDS011;21867;52.012;4.324;2022-11-15T05:55:33;14.00;;;5.13;;
35743;SDS011;21867;52.012;4.324;2022-11-15T05:58:21;16.03;;;5.63;;
35743;SDS011;21867;52.012;4.324;2022-11-15T06:01:07;12.40;;;4.47;;
35743;SDS011;21867;52.012;4.324;2022-11-15T06:03:53;6.93;;;4.13;;
35743;SDS011;21867;52.012;4.324;2022-11-15T06:06:39;14.60;;;5.00;;
35743;SDS011;21867;52.012;4.324;2022-11-15T06:09:30;8.37;;;4.23;;
35743;SDS011;21867;52.012;4.324;2022-11-15T06:12:16;13.63;;;4.27;;
35743;SDS011;21867;52.012;4.324;2022-11-15T06:15:04;10.23;;;4.47;;
35743;SDS011;21867;52.012;4.324;2022-11-15T06:17:50;10.43;;;4.57;;
35743;SDS011;21867;52.012;4.324;2022-11-15T06:24:22;11.53;;;4.33;;
35743;SDS011;21867;52.012;4.324;2022-11-15T06:27:09;5.40;;;3.37;;
35743;SDS011;21867;52.012;4.324;2022-11-15T06:29:54;6.07;;;3.63;;
35743;SDS011;21867;52.012;4.324;2022-11-15T06:32:41;22.93;;;5.23;;
35743;SDS011;21867;52.012;4.324;2022-11-15T06:35:28;9.83;;;4.10;;
35743;SDS011;21867;52.012;4.324;2022-11-15T06:38:14;13.47;;;4.10;;
35743;SDS011;21867;52.012;4.324;2022-11-15T06:41:03;9.10;;;3.60;;
35743;SDS011;21867;52.012;4.324;2022-11-15T06:43:49;8.87;;;4.60;;
35743;SDS011;21867;52.012;4.324;2022-11-15T06:46:35;9.73;;;4.50;;
35743;SDS011;21867;52.012;4.324;2022-11-15T06:49:22;5.80;;;4.30;;
35743;SDS011;21867;52.012;4.324;2022-11-15T06:52:07;4.37;;;3.50;;
35743;SDS011;21867;52.012;4.324;2022-11-15T06:54:53;7.57;;;4.13;;
35743;SDS011;21867;52.012;4.324;2022-11-15T06:57:45;6.47;;;4.17;;
35743;SDS011;21867;52.012;4.324;2022-11-15T07:00:31;5.73;;;3.47;;
35743;SDS011;21867;52.012;4.324;2022-11-15T07:03:16;9.80;;;4.50;;
35743;SDS011;21867;52.012;4.324;2022-11-15T07:06:04;9.93;;;4.00;;
35743;SDS011;21867;52.012;4.324;2022-11-15T07:08:51;6.60;;;3.47;;
35743;SDS011;21867;52.012;4.324;2022-11-15T07:11:37;8.00;;;4.47;;
35743;SDS011;21867;52.012;4.324;2022-11-15T07:14:23;9.53;;;3.70;;
35743;SDS011;21867;52.012;4.324;2022-11-15T07:17:08;7.97;;;4.10;;
35743;SDS011;21867;52.012;4.324;2022-11-15T07:19:54;7.50;;;4.27;;
35743;SDS011;21867;52.012;4.324;2022-11-15T07:22:42;8.07;;;4.30;;
35743;SDS011;21867;52.012;4.324;2022-11-15T07:25:28;6.53;;;4.30;;
35743;SDS011;21867;52.012;4.324;2022-11-15T07:28:14;4.30;;;3.40;;
35743;SDS011;21867;52.012;4.324;2022-11-15T07:31:01;8.47;;;3.97;;
35743;SDS011;21867;52.012;4.324;2022-11-15T07:33:47;8.60;;;4.07;;
35743;SDS011;21867;52.012;4.324;2022-11-15T07:36:33;6.93;;;4.20;;
35743;SDS011;21867;52.012;4.324;2022-11-15T07:39:20;7.57;;;3.80;;
35743;SDS011;21867;52.012;4.324;2022-11-15T07:42:06;9.87;;;4.90;;
35743;SDS011;21867;52.012;4.324;2022-11-15T07:44:52;9.77;;;3.73;;
35743;SDS011;21867;52.012;4.324;2022-11-15T07:47:38;6.87;;;4.03;;
35743;SDS011;21867;52.012;4.324;2022-11-15T07:54:03;8.47;;;3.83;;
35743;SDS011;21867;52.012;4.324;2022-11-15T07:56:51;5.70;;;3.97;;
35743;SDS011;21867;52.012;4.324;2022-11-15T07:59:37;8.03;;;4.57;;
35743;SDS011;21867;52.012;4.324;2022-11-15T08:02:23;9.17;;;3.97;;
35743;SDS011;21867;52.012;4.324;2022-11-15T08:05:14;6.37;;;4.27;;
35743;SDS011;21867;52.012;4.324;2022-11-15T08:10:49;13.60;;;4.43;;
35743;SDS011;21867;52.012;4.324;2022-11-15T08:13:37;7.60;;;4.20;;
35743;SDS011;21867;52.012;4.324;2022-11-15T08:16:23;4.90;;;3.03;;
35743;SDS011;21867;52.012;4.324;2022-11-15T08:19:09;4.30;;;3.30;;
35743;SDS011;21867;52.012;4.324;2022-11-15T08:21:55;8.50;;;3.87;;
35743;SDS011;21867;52.012;4.324;2022-11-15T08:28:28;5.50;;;3.33;;
35743;SDS011;21867;52.012;4.324;2022-11-15T08:31:17;5.17;;;3.10;;
35743;SDS011;21867;52.012;4.324;2022-11-15T08:34:03;5.97;;;3.87;;
35743;SDS011;21867;52.012;4.324;2022-11-15T08:36:49;4.57;;;3.37;;
35743;SDS011;21867;52.012;4.324;2022-11-15T08:39:34;4.47;;;3.27;;
35743;SDS011;21867;52.012;4.324;2022-11-15T08:45:09;4.00;;;3.00;;
35743;SDS011;21867;52.012;4.324;2022-11-15T08:47:57;6.20;;;3.60;;
35743;SDS011;21867;52.012;4.324;2022-11-15T08:50:43;6.17;;;4.30;;
35743;SDS011;21867;52.012;4.324;2022-11-15T08:53:29;4.47;;;3.40;;
35743;SDS011;21867;52.012;4.324;2022-11-15T08:56:15;6.00;;;3.97;;
35743;SDS011;21867;52.012;4.324;2022-11-15T09:05:36;8.90;;;4.57;;
35743;SDS011;21867;52.012;4.324;2022-11-15T09:08:23;6.20;;;4.33;;
35743;SDS011;21867;52.012;4.324;2022-11-15T09:11:29;6.03;;;3.60;;
35743;SDS011;21867;52.012;4.324;2022-11-15T09:14:15;3.97;;;3.57;;
35743;SDS011;21867;52.012;4.324;2022-11-15T09:19:50;4.97;;;3.60;;
35743;SDS011;21867;52.012;4.324;2022-11-15T09:22:38;4.17;;;3.77;;
35743;SDS011;21867;52.012;4.324;2022-11-15T09:25:24;7.57;;;3.93;;
35743;SDS011;21867;52.012;4.324;2022-11-15T09:28:10;6.17;;;4.10;;
35743;SDS011;21867;52.012;4.324;2022-11-15T09:30:56;6.70;;;4.10;;
35743;SDS011;21867;52.012;4.324;2022-11-15T09:33:55;6.87;;;4.07;;
35743;SDS011;21867;52.012;4.324;2022-11-15T09:36:59;5.40;;;3.87;;
35743;SDS011;21867;52.012;4.324;2022-11-15T09:39:46;9.27;;;4.60;;
35743;SDS011;21867;52.012;4.324;2022-11-15T09:42:36;9.50;;;4.67;;
35743;SDS011;21867;52.012;4.324;2022-11-15T09:45:26;7.23;;;3.93;;
35743;SDS011;21867;52.012;4.324;2022-11-15T09:48:26;9.87;;;3.60;;
35743;SDS011;21867;52.012;4.324;2022-11-15T09:54:09;7.37;;;3.60;;
35743;SDS011;21867;52.012;4.324;2022-11-15T09:57:04;5.67;;;4.23;;
35743;SDS011;21867;52.012;4.324;2022-11-15T09:59:43;5.70;;;3.77;;
35743;SDS011;21867;52.012;4.324;2022-11-15T10:02:16;7.00;;;3.90;;
35743;SDS011;21867;52.012;4.324;2022-11-15T10:04:46;7.63;;;3.63;;
35743;SDS011;21867;52.012;4.324;2022-11-15T10:13:50;7.07;;;3.80;;
35743;SDS011;21867;52.012;4.324;2022-11-15T10:16:32;11.87;;;3.90;;
35743;SDS011;21867;52.012;4.324;2022-11-15T10:19:05;9.40;;;4.30;;
35743;SDS011;21867;52.012;4.324;2022-11-15T10:21:37;6.27;;;4.07;;
35743;SDS011;21867;52.012;4.324;2022-11-15T10:24:12;6.57;;;4.07;;
35743;SDS011;21867;52.012;4.324;2022-11-15T10:26:44;6.90;;;3.80;;
35743;SDS011;21867;52.012;4.324;2022-11-15T10:29:18;5.97;;;3.43;;
35743;SDS011;21867;52.012;4.324;2022-11-15T10:31:52;4.07;;;3.03;;
35743;SDS011;21867;52.012;4.324;2022-11-15T10:34:20;9.27;;;3.73;;
35743;SDS011;21867;52.012;4.324;2022-11-15T10:43:25;6.77;;;3.00;;
35743;SDS011;21867;52.012;4.324;2022-11-15T10:45:54;4.63;;;3.03;;
35743;SDS011;21867;52.012;4.324;2022-11-15T10:48:22;7.10;;;3.13;;
35743;SDS011;21867;52.012;4.324;2022-11-15T10:50:50;4.00;;;2.87;;
35743;SDS011;21867;52.012;4.324;2022-11-15T10:53:23;7.40;;;2.90;;
35743;SDS011;21867;52.012;4.324;2022-11-15T10:58:30;7.10;;;2.73;;
35743;SDS011;21867;52.012;4.324;2022-11-15T11:01:12;12.13;;;3.83;;
35743;SDS011;21867;52.012;4.324;2022-11-15T11:03:40;5.27;;;2.60;;
35743;SDS011;21867;52.012;4.324;2022-11-15T11:06:15;8.63;;;3.33;;
35743;SDS011;21867;52.012;4.324;2022-11-15T11:09:18;7.93;;;3.07;;
35743;SDS011;21867;52.012;4.324;2022-11-15T11:11:59;5.17;;;3.07;;
35743;SDS011;21867;52.012;4.324;2022-11-15T11:14:27;7.57;;;2.50;;
35743;SDS011;21867;52.012;4.324;2022-11-15T11:16:57;5.37;;;2.83;;
35743;SDS011;21867;52.012;4.324;2022-11-15T11:19:34;4.73;;;2.50;;
35743;SDS011;21867;52.012;4.324;2022-11-15T11:22:05;9.93;;;2.40;;
35743;SDS011;21867;52.012;4.324;2022-11-15T11:24:38;5.00;;;2.70;;
35743;SDS011;21867;52.012;4.324;2022-11-15T11:27:12;9.33;;;2.90;;
35743;SDS011;21867;52.012;4.324;2022-11-15T11:29:44;7.27;;;2.93;;
35743;SDS011;21867;52.012;4.324;2022-11-15T11:32:25;7.00;;;2.67;;
35743;SDS011;21867;52.012;4.324;2022-11-15T11:34:58;3.57;;;2.30;;
35743;SDS011;21867;52.012;4.324;2022-11-15T11:37:28;8.50;;;2.67;;
35743;SDS011;21867;52.012;4.324;2022-11-15T11:40:00;5.40;;;2.60;;
35743;SDS011;21867;52.012;4.324;2022-11-15T11:49:01;3.50;;;2.43;;
35743;SDS011;21867;52.012;4.324;2022-11-15T11:51:32;8.40;;;2.43;;
35743;SDS011;21867;52.012;4.324;2022-11-15T11:54:01;4.07;;;2.27;;
35743;SDS011;21867;52.012;4.324;2022-11-15T11:56:31;6.83;;;1.90;;
35743;SDS011;21867;52.012;4.324;2022-11-15T11:59:00;6.37;;;2.77;;
35743;SDS011;21867;52.012;4.324;2022-11-15T12:01:30;3.97;;;2.60;;
35743;SDS011;21867;52.012;4.324;2022-11-15T12:04:01;5.40;;;2.80;;
35743;SDS011;21867;52.012;4.324;2022-11-15T12:06:36;6.30;;;2.30;;
35743;SDS011;21867;52.012;4.324;2022-11-15T12:09:07;5.17;;;2.50;;
35743;SDS011;21867;52.012;4.324;2022-11-15T12:11:42;6.30;;;2.60;;
35743;SDS011;21867;52.012;4.324;2022-11-15T12:14:12;4.53;;;2.03;;
35743;SDS011;21867;52.012;4.324;2022-11-15T12:23:07;2.73;;;1.90;;
35743;SDS011;21867;52.012;4.324;2022-11-15T12:25:40;6.97;;;2.60;;
35743;SDS011;21867;52.012;4.324;2022-11-15T12:28:12;3.53;;;1.93;;
35743;SDS011;21867;52.012;4.324;2022-11-15T12:30:43;6.93;;;2.33;;
35743;SDS011;21867;52.012;4.324;2022-11-15T12:35:57;3.57;;;1.80;;
35743;SDS011;21867;52.012;4.324;2022-11-15T12:43:51;3.83;;;2.37;;
35743;SDS011;21867;52.012;4.324;2022-11-15T12:49:08;3.43;;;2.30;;
35743;SDS011;21867;52.012;4.324;2022-11-15T12:58:48;5.00;;;1.80;;
35743;SDS011;21867;52.012;4.324;2022-11-15T13:04:13;3.30;;;1.70;;
35743;SDS011;21867;52.012;4.324;2022-11-15T13:06:43;6.67;;;2.53;;
35743;SDS011;21867;52.012;4.324;2022-11-15T13:11:54;4.00;;;2.20;;
35743;SDS011;21867;52.012;4.324;2022-11-15T13:17:12;5.23;;;2.00;;
35743;SDS011;21867;52.012;4.324;2022-11-15T13:19:44;6.13;;;2.10;;
35743;SDS011;21867;52.012;4.324;2022-11-15T13:22:12;5.20;;;2.00;;
35743;SDS011;21867;52.012;4.324;2022-11-15T13:28:08;4.87;;;1.70;;
35743;SDS011;21867;52.012;4.324;2022-11-15T13:31:41;5.73;;;2.30;;
35743;SDS011;21867;52.012;4.324;2022-11-15T13:34:15;8.43;;;2.37;;
35743;SDS011;21867;52.012;4.324;2022-11-15T13:37:07;4.03;;;1.87;;
35743;SDS011;21867;52.012;4.324;2022-11-15T13:39:37;5.20;;;2.13;;
35743;SDS011;21867;52.012;4.324;2022-11-15T13:42:04;2.67;;;1.90;;
35743;SDS011;21867;52.012;4.324;2022-11-15T13:47:14;5.10;;;2.50;;
35743;SDS011;21867;52.012;4.324;2022-11-15T13:49:41;4.10;;;1.80;;
35743;SDS011;21867;52.012;4.324;2022-11-15T13:52:11;4.37;;;1.97;;
35743;SDS011;21867;52.012;4.324;2022-11-15T13:54:40;6.07;;;2.40;;
35743;SDS011;21867;52.012;4.324;2022-11-15T13:57:10;7.30;;;2.10;;
35743;SDS011;21867;52.012;4.324;2022-11-15T13:59:45;3.10;;;1.67;;
35743;SDS011;21867;52.012;4.324;2022-11-15T14:08:37;6.17;;;1.63;;
35743;SDS011;21867;52.012;4.324;2022-11-15T14:11:06;6.63;;;2.20;;
35743;SDS011;21867;52.012;4.324;2022-11-15T14:13:33;3.57;;;1.93;;
35743;SDS011;21867;52.012;4.324;2022-11-15T14:16:14;3.23;;;1.60;;
35743;SDS011;21867;52.012;4.324;2022-11-15T14:21:24;6.50;;;2.00;;
35743;SDS011;21867;52.012;4.324;2022-11-15T14:23:54;3.23;;;1.80;;
35743;SDS011;21867;52.012;4.324;2022-11-15T14:26:40;2.50;;;1.80;;
35743;SDS011;21867;52.012;4.324;2022-11-15T14:29:23;5.77;;;2.73;;
35743;SDS011;21867;52.012;4.324;2022-11-15T14:31:51;3.13;;;1.80;;
35743;SDS011;21867;52.012;4.324;2022-11-15T14:43:44;5.23;;;2.07;;
35743;SDS011;21867;52.012;4.324;2022-11-15T14:46:12;11.20;;;2.17;;
35743;SDS011;21867;52.012;4.324;2022-11-15T14:48:39;5.43;;;1.90;;
35743;SDS011;21867;52.012;4.324;2022-11-15T14:51:09;4.23;;;1.97;;
35743;SDS011;21867;52.012;4.324;2022-11-15T14:56:14;2.13;;;1.90;;
35743;SDS011;21867;52.012;4.324;2022-11-15T14:58:41;4.33;;;2.00;;
35743;SDS011;21867;52.012;4.324;2022-11-15T15:01:12;4.53;;;1.90;;
35743;SDS011;21867;52.012;4.324;2022-11-15T15:03:40;4.47;;;2.10;;
35743;SDS011;21867;52.012;4.324;2022-11-15T15:06:07;4.37;;;2.10;;
35743;SDS011;21867;52.012;4.324;2022-11-15T15:14:54;3.10;;;2.20;;
35743;SDS011;21867;52.012;4.324;2022-11-15T15:17:23;4.07;;;1.80;;
35743;SDS011;21867;52.012;4.324;2022-11-15T15:19:50;6.63;;;2.00;;
35743;SDS011;21867;52.012;4.324;2022-11-15T15:22:17;1.83;;;1.73;;
35743;SDS011;21867;52.012;4.324;2022-11-15T15:24:45;3.93;;;2.03;;
35743;SDS011;21867;52.012;4.324;2022-11-15T15:27:13;3.50;;;1.93;;
35743;SDS011;21867;52.012;4.324;2022-11-15T15:29:40;6.40;;;2.47;;
35743;SDS011;21867;52.012;4.324;2022-11-15T15:32:08;2.53;;;1.67;;
35743;SDS011;21867;52.012;4.324;2022-11-15T15:34:37;7.23;;;2.03;;
35743;SDS011;21867;52.012;4.324;2022-11-15T15:37:08;1.43;;;1.33;;
35743;SDS011;21867;52.012;4.324;2022-11-15T15:39:36;4.13;;;1.93;;
35743;SDS011;21867;52.012;4.324;2022-11-15T15:42:03;3.80;;;1.93;;
35743;SDS011;21867;52.012;4.324;2022-11-15T15:44:43;2.77;;;1.97;;
35743;SDS011;21867;52.012;4.324;2022-11-15T15:49:59;2.47;;;1.80;;
35743;SDS011;21867;52.012;4.324;2022-11-15T15:52:26;3.43;;;2.13;;
35743;SDS011;21867;52.012;4.324;2022-11-15T15:54:53;2.57;;;2.17;;
35743;SDS011;21867;52.012;4.324;2022-11-15T15:57:20;6.03;;;2.30;;
35743;SDS011;21867;52.012;4.324;2022-11-15T15:59:48;2.40;;;2.10;;
35743;SDS011;21867;52.012;4.324;2022-11-15T16:04:59;2.47;;;1.80;;
35743;SDS011;21867;52.012;4.324;2022-11-15T16:07:27;4.87;;;2.10;;
35743;SDS011;21867;52.012;4.324;2022-11-15T16:09:54;3.43;;;2.13;;
35743;SDS011;21867;52.012;4.324;2022-11-15T16:12:40;2.63;;;2.10;;
35743;SDS011;21867;52.012;4.324;2022-11-15T16:15:21;3.70;;;2.43;;
35743;SDS011;21867;52.012;4.324;2022-11-15T16:18:01;5.27;;;2.70;;
35743;SDS011;21867;52.012;4.324;2022-11-15T16:20:31;2.73;;;1.87;;
35743;SDS011;21867;52.012;4.324;2022-11-15T16:22:59;4.63;;;2.43;;
35743;SDS011;21867;52.012;4.324;2022-11-15T16:25:34;3.53;;;2.20;;
35743;SDS011;21867;52.012;4.324;2022-11-15T16:28:03;6.27;;;2.23;;
35743;SDS011;21867;52.012;4.324;2022-11-15T16:30:31;4.00;;;2.17;;
35743;SDS011;21867;52.012;4.324;2022-11-15T16:33:05;2.93;;;2.33;;
35743;SDS011;21867;52.012;4.324;2022-11-15T16:35:33;4.93;;;2.10;;
35743;SDS011;21867;52.012;4.324;2022-11-15T16:38:00;5.00;;;2.27;;
35743;SDS011;21867;52.012;4.324;2022-11-15T16:40:28;4.13;;;2.73;;
35743;SDS011;21867;52.012;4.324;2022-11-15T16:46:44;3.67;;;2.70;;
35743;SDS011;21867;52.012;4.324;2022-11-15T16:49:11;5.60;;;2.50;;
35743;SDS011;21867;52.012;4.324;2022-11-15T16:51:41;4.20;;;2.63;;
35743;SDS011;21867;52.012;4.324;2022-11-15T16:54:08;2.60;;;2.30;;
35743;SDS011;21867;52.012;4.324;2022-11-15T16:56:35;3.40;;;2.10;;
35743;SDS011;21867;52.012;4.324;2022-11-15T16:59:03;2.70;;;2.20;;
35743;SDS011;21867;52.012;4.324;2022-11-15T17:01:31;3.53;;;2.20;;
35743;SDS011;21867;52.012;4.324;2022-11-15T17:03:58;3.30;;;2.87;;
35743;SDS011;21867;52.012;4.324;2022-11-15T17:06:26;3.27;;;2.47;;
35743;SDS011;21867;52.012;4.324;2022-11-15T17:08:54;4.73;;;2.50;;
35743;SDS011;21867;52.012;4.324;2022-11-15T17:11:22;5.27;;;2.60;;
35743;SDS011;21867;52.012;4.324;2022-11-15T17:13:49;6.13;;;2.77;;
35743;SDS011;21867;52.012;4.324;2022-11-15T17:16:16;3.20;;;2.40;;
35743;SDS011;21867;52.012;4.324;2022-11-15T17:18:44;3.57;;;2.67;;
35743;SDS011;21867;52.012;4.324;2022-11-15T17:21:12;3.40;;;2.20;;
35743;SDS011;21867;52.012;4.324;2022-11-15T17:23:39;5.67;;;2.90;;
35743;SDS011;21867;52.012;4.324;2022-11-15T17:26:09;2.50;;;2.30;;
35743;SDS011;21867;52.012;4.324;2022-11-15T17:28:55;2.60;;;2.40;;
35743;SDS011;21867;52.012;4.324;2022-11-15T17:31:23;3.30;;;2.57;;
35743;SDS011;21867;52.012;4.324;2022-11-15T17:33:50;5.27;;;2.23;;
35743;SDS011;21867;52.012;4.324;2022-11-15T17:36:17;5.43;;;2.60;;
35743;SDS011;21867;52.012;4.324;2022-11-15T17:38:44;3.10;;;2.57;;
35743;SDS011;21867;52.012;4.324;2022-11-15T17:41:14;3.30;;;2.87;;
35743;SDS011;21867;52.012;4.324;2022-11-15T17:43:41;6.03;;;3.33;;
35743;SDS011;21867;52.012;4.324;2022-11-15T17:46:10;3.97;;;2.57;;
35743;SDS011;21867;52.012;4.324;2022-11-15T17:48:38;2.40;;;1.97;;
35743;SDS011;21867;52.012;4.324;2022-11-15T17:51:06;3.03;;;2.30;;
35743;SDS011;21867;52.012;4.324;2022-11-15T17:53:34;3.30;;;1.97;;
35743;SDS011;21867;52.012;4.324;2022-11-15T17:56:02;3.73;;;2.50;;
35743;SDS011;21867;52.012;4.324;2022-11-15T17:58:31;3.97;;;2.50;;
35743;SDS011;21867;52.012;4.324;2022-11-15T18:01:03;3.23;;;2.63;;
35743;SDS011;21867;52.012;4.324;2022-11-15T18:03:32;5.40;;;2.57;;
35743;SDS011;21867;52.012;4.324;2022-11-15T18:06:00;8.17;;;2.70;;
35743;SDS011;21867;52.012;4.324;2022-11-15T18:08:27;4.77;;;3.10;;
35743;SDS011;21867;52.012;4.324;2022-11-15T18:11:01;3.50;;;2.17;;
35743;SDS011;21867;52.012;4.324;2022-11-15T18:13:30;4.67;;;2.73;;
35743;SDS011;21867;52.012;4.324;2022-11-15T18:15:58;7.77;;;3.00;;
35743;SDS011;21867;52.012;4.324;2022-11-15T18:18:25;2.87;;;2.57;;
35743;SDS011;21867;52.012;4.324;2022-11-15T18:20:57;2.93;;;2.63;;
35743;SDS011;21867;52.012;4.324;2022-11-15T18:23:25;3.50;;;2.90;;
35743;SDS011;21867;52.012;4.324;2022-11-15T18:25:52;5.77;;;3.47;;
35743;SDS011;21867;52.012;4.324;2022-11-15T18:28:19;5.57;;;2.87;;
35743;SDS011;21867;52.012;4.324;2022-11-15T18:30:48;3.43;;;3.03;;
35743;SDS011;21867;52.012;4.324;2022-11-15T18:33:15;3.87;;;2.70;;
35743;SDS011;21867;52.012;4.324;2022-11-15T18:35:42;3.40;;;3.10;;
35743;SDS011;21867;52.012;4.324;2022-11-15T18:38:10;3.30;;;3.00;;